Time;durP1;ratioP1;P1;durP2;ratioP2;P2;SDS_P1;SDS_P2;PMS_P1;PMS_P2;Temp;Humidity;BMP_temperature;BMP_pressure;BME280_temperature;BME280_humidity;BME280_pressure;Samples;Min_cycle;Max_cycle;Signal;HPM_P1;HPM_P2
2022/01/18 00:01:10;;;;;;;36.40;5.68;;;;;;;4.43;95.12;103789.31;5055827;28;20389;-68
2022/01/18 00:03:35;;;;;;;40.45;5.68;;;;;;;4.38;95.38;103793.84;5037828;28;20079;-66
2022/01/18 00:06:01;;;;;;;35.33;6.03;;;;;;;4.36;96.08;103783.66;5056506;28;20060;-66
2022/01/18 00:08:26;;;;;;;32.75;5.35;;;;;;;4.42;95.23;103795.34;5038535;28;20033;-66
2022/01/18 00:10:51;;;;;;;32.15;5.00;;;;;;;4.41;95.65;103804.78;5056455;28;20025;-67
2022/01/18 00:13:36;;;;;;;31.02;6.05;;;;;;;4.46;95.13;103804.53;5056950;28;20025;-66
2022/01/18 00:18:31;;;;;;;34.65;5.88;;;;;;;4.49;96.09;103806.97;5056494;28;20115;-66
2022/01/18 00:23:31;;;;;;;32.42;5.65;;;;;;;4.43;95.54;103809.81;5056524;28;20024;-67
2022/01/18 00:25:58;;;;;;;32.90;5.85;;;;;;;4.38;95.01;103811.78;5055837;28;20494;-67
2022/01/18 00:28:25;;;;;;;35.17;8.05;;;;;;;4.33;94.51;103814.53;5037951;28;20037;-67
2022/01/18 00:31:30;;;;;;;32.38;6.00;;;;;;;4.36;94.60;103814.38;5054687;28;20093;-67
2022/01/18 00:36:26;;;;;;;36.15;6.72;;;;;;;4.39;96.06;103818.53;5056295;28;20068;-67
2022/01/18 00:38:52;;;;;;;35.80;6.13;;;;;;;4.40;95.84;103809.94;5038050;28;20024;-67
2022/01/18 00:41:19;;;;;;;34.17;6.32;;;;;;;4.38;94.82;103819.47;5055727;28;20031;-67
2022/01/18 00:43:45;;;;;;;46.70;6.93;;;;;;;4.28;94.84;103813.91;5037966;28;20029;-67
2022/01/18 00:46:12;;;;;;;31.70;6.10;;;;;;;4.30;94.89;103818.06;5038036;28;20086;-67
2022/01/18 00:48:39;;;;;;;32.50;6.13;;;;;;;4.19;93.97;103815.16;5056379;28;20085;-67
2022/01/18 00:51:08;;;;;;;32.72;6.65;;;;;;;4.15;95.11;103808.53;5055601;28;20099;-67
2022/01/18 00:53:36;;;;;;;35.05;6.13;;;;;;;4.16;95.46;103817.03;5037510;28;20064;-66
2022/01/18 00:58:38;;;;;;;39.13;6.25;;;;;;;4.18;94.94;103810.13;5055577;28;20495;-66
2022/01/18 01:01:04;;;;;;;24.85;5.93;;;;;;;4.12;94.94;103816.38;5055464;28;20119;-66
2022/01/18 01:03:29;;;;;;;30.35;6.10;;;;;;;4.06;94.49;103809.78;5055258;28;20473;-66
2022/01/18 01:05:55;;;;;;;23.13;5.75;;;;;;;4.06;94.49;103807.22;5055426;28;20381;-67
2022/01/18 01:08:20;;;;;;;35.65;7.10;;;;;;;4.11;95.15;103812.13;5055955;28;20047;-66
2022/01/18 01:10:46;;;;;;;33.65;6.10;;;;;;;4.04;94.41;103811.59;5055348;28;20049;-67
2022/01/18 01:13:12;;;;;;;32.97;5.70;;;;;;;4.06;94.55;103816.66;5055188;28;20139;-67
2022/01/18 01:16:11;;;;;;;26.48;5.78;;;;;;;4.06;94.51;103814.91;5037316;28;20025;-67
2022/01/18 01:18:48;;;;;;;28.25;6.22;;;;;;;4.00;93.68;103806.66;5054317;28;20033;-67
2022/01/18 01:32:50;;;;;;;26.85;6.00;;;;;;;3.73;93.53;103813.84;5055742;28;20031;-66
2022/01/18 01:35:28;;;;;;;24.88;5.57;;;;;;;3.63;92.84;103810.06;5054597;28;20495;-66
2022/01/18 01:46:14;;;;;;;25.52;5.75;;;;;;;3.58;93.90;103798.28;4993305;28;20034;-67
2022/01/18 01:48:41;;;;;;;22.80;5.78;;;;;;;3.45;93.20;103791.22;5023688;28;20113;-67
2022/01/18 01:51:06;;;;;;;24.52;5.68;;;;;;;3.48;93.29;103799.59;5054529;28;20031;-67
2022/01/18 01:53:33;;;;;;;23.48;5.88;;;;;;;3.38;93.44;103799.16;5054292;28;20052;-67
2022/01/18 01:56:00;;;;;;;22.95;6.05;;;;;;;3.32;94.29;103806.25;5036635;28;20020;-67
2022/01/18 01:58:27;;;;;;;23.80;5.88;;;;;;;3.30;94.62;103795.25;5054413;28;20025;-67
2022/01/18 02:00:55;;;;;;;30.48;6.68;;;;;;;3.42;94.06;103801.56;5054353;28;20025;-67
2022/01/18 02:03:21;;;;;;;25.55;6.80;;;;;;;3.41;93.94;103805.84;5054477;28;20028;-67
2022/01/18 02:05:47;;;;;;;28.10;6.10;;;;;;;3.41;93.56;103803.31;5054280;28;20104;-67
2022/01/18 02:08:14;;;;;;;20.88;5.50;;;;;;;3.39;93.70;103803.38;5036289;28;20468;-67
2022/01/18 02:10:41;;;;;;;29.55;6.07;;;;;;;3.36;93.79;103805.22;5054240;28;20410;-67
2022/01/18 02:13:08;;;;;;;28.42;5.65;;;;;;;3.44;94.30;103810.00;5054224;28;20473;-67
2022/01/18 02:15:41;;;;;;;25.60;5.38;;;;;;;3.52;93.66;103810.53;5035335;28;20067;-68
2022/01/18 02:23:36;;;;;;;22.02;5.80;;;;;;;3.41;92.63;103802.47;5054844;28;20036;-67
2022/01/18 02:26:02;;;;;;;24.90;6.32;;;;;;;3.36;92.50;103806.03;5054617;28;20101;-67
2022/01/18 02:28:28;;;;;;;29.40;6.35;;;;;;;3.26;92.72;103807.34;5036032;28;20403;-67
2022/01/18 02:30:54;;;;;;;23.45;6.40;;;;;;;3.26;93.27;103803.97;5053780;28;20021;-67
2022/01/18 02:33:20;;;;;;;28.48;6.53;;;;;;;3.28;92.99;103809.81;5053823;28;20029;-67
2022/01/18 02:35:46;;;;;;;39.72;7.32;;;;;;;3.29;94.03;103814.06;5053729;28;20404;-67
2022/01/18 02:38:12;;;;;;;57.55;7.00;;;;;;;3.24;93.70;103811.69;5053916;28;20029;-67
2022/01/18 02:40:38;;;;;;;81.00;8.05;;;;;;;3.30;94.49;103813.97;5053549;28;20029;-67
2022/01/18 02:45:52;;;;;;;72.22;6.82;;;;;;;3.21;94.93;103793.09;5053914;28;20041;-67
2022/01/18 02:48:18;;;;;;;89.88;8.95;;;;;;;3.29;94.52;103808.94;5035801;28;20435;-67
2022/01/18 02:50:44;;;;;;;79.35;9.15;;;;;;;3.25;95.29;103800.59;5035646;28;20017;-67
2022/01/18 02:53:09;;;;;;;79.32;8.20;;;;;;;3.28;95.48;103802.16;5053185;28;20045;-67
2022/01/18 02:55:34;;;;;;;105.53;9.75;;;;;;;3.39;95.14;103802.53;5035632;28;20033;-67
2022/01/18 02:58:07;;;;;;;93.40;9.60;;;;;;;3.42;95.33;103806.69;5053424;28;20025;-67
2022/01/18 03:03:21;;;;;;;120.15;12.27;;;;;;;3.46;95.57;103801.38;5054111;28;20036;-67
2022/01/18 03:05:47;;;;;;;93.00;10.38;;;;;;;3.44;95.37;103803.16;5053336;28;20024;-67
2022/01/18 03:08:13;;;;;;;69.65;8.50;;;;;;;3.39;95.97;103795.72;5035432;28;20029;-67
2022/01/18 03:10:40;;;;;;;102.43;9.60;;;;;;;3.36;95.84;103798.38;5053363;28;20050;-67
2022/01/18 03:13:06;;;;;;;116.15;8.65;;;;;;;3.34;95.87;103810.41;5053288;28;20541;-67
2022/01/18 03:15:33;;;;;;;58.47;8.00;;;;;;;3.41;96.23;103803.31;5035346;28;20025;-67
2022/01/18 03:18:00;;;;;;;116.03;8.93;;;;;;;3.32;96.31;103803.69;5035406;28;20486;-67
2022/01/18 03:20:25;;;;;;;97.57;8.63;;;;;;;3.24;95.53;103801.47;5053189;28;20055;-67
2022/01/18 03:22:51;;;;;;;142.82;10.27;;;;;;;3.24;96.53;103814.25;5053200;28;20464;-67
2022/01/18 03:25:29;;;;;;;93.03;7.88;;;;;;;3.25;96.80;103817.63;5035337;28;20024;-67
2022/01/18 03:28:05;;;;;;;58.17;7.60;;;;;;;3.43;96.41;103827.09;5054830;28;20023;-66
2022/01/18 03:30:36;;;;;;;125.20;8.32;;;;;;;3.46;96.76;103821.84;5039343;28;20025;-66
2022/01/18 03:33:03;;;;;;;86.07;7.82;;;;;;;3.45;96.29;103812.47;5057249;28;20472;-66
2022/01/18 03:35:28;;;;;;;108.15;9.68;;;;;;;3.49;96.55;103815.75;5057126;28;20082;-67
2022/01/18 03:37:54;;;;;;;57.17;8.75;;;;;;;3.48;95.97;103821.75;5057087;28;20025;-66
2022/01/18 03:40:20;;;;;;;86.43;7.78;;;;;;;3.48;96.36;103820.06;5056982;28;20021;-66
2022/01/18 03:42:47;;;;;;;75.10;7.45;;;;;;;3.60;96.02;103814.41;5039175;28;20033;-66
2022/01/18 03:45:16;;;;;;;124.50;10.63;;;;;;;3.61;95.81;103820.34;5039082;28;20029;-67
2022/01/18 03:47:42;;;;;;;84.55;8.63;;;;;;;3.63;95.87;103828.78;5039024;28;20025;-67
2022/01/18 03:50:09;;;;;;;81.82;7.82;;;;;;;3.57;96.43;103819.66;5056872;28;20022;-67
2022/01/18 03:52:35;;;;;;;121.80;10.55;;;;;;;3.59;96.73;103824.69;5056576;28;20048;-67
2022/01/18 03:55:01;;;;;;;87.20;8.73;;;;;;;3.60;96.63;103824.63;5057374;28;20104;-67
2022/01/18 03:57:26;;;;;;;114.35;7.80;;;;;;;3.63;97.07;103830.53;5056682;28;20032;-67
2022/01/18 03:59:52;;;;;;;81.60;8.93;;;;;;;3.71;96.89;103839.53;5057161;28;20036;-67
2022/01/18 04:02:18;;;;;;;99.30;8.93;;;;;;;3.67;97.46;103843.09;5056569;28;20056;-67
2022/01/18 04:04:43;;;;;;;111.72;8.63;;;;;;;3.69;97.34;103845.59;5056673;28;20029;-67
2022/01/18 04:07:09;;;;;;;122.05;8.77;;;;;;;3.73;97.34;103847.94;5056585;28;20158;-67
2022/01/18 04:09:35;;;;;;;142.23;9.48;;;;;;;3.80;97.40;103848.53;5056543;28;20029;-67
2022/01/18 04:12:01;;;;;;;150.20;11.02;;;;;;;3.81;97.33;103845.06;5056473;28;20107;-68
2022/01/18 04:14:26;;;;;;;87.47;9.45;;;;;;;3.83;97.50;103840.69;5056487;28;20104;-68
2022/01/18 04:17:51;;;;;;;120.60;8.85;;;;;;;3.76;97.72;103837.56;5056778;28;20481;-68
2022/01/18 04:27:50;;;;;;;144.05;11.70;;;;;;;4.18;98.06;103859.59;5058023;28;20040;-70
2022/01/18 04:30:15;;;;;;;165.50;11.90;;;;;;;4.10;98.12;103855.72;5057222;28;20024;-71
2022/01/18 04:32:40;;;;;;;203.23;11.80;;;;;;;4.09;98.39;103854.91;5057368;28;20024;-69
2022/01/18 04:35:06;;;;;;;150.18;11.90;;;;;;;3.91;99.06;103851.41;5057088;28;20048;-70
2022/01/18 04:37:31;;;;;;;225.52;14.15;;;;;;;3.87;99.18;103843.94;5056967;28;20086;-67
2022/01/18 04:39:58;;;;;;;218.48;12.65;;;;;;;3.99;99.75;103844.22;5055907;28;20029;-67
2022/01/18 04:50:42;;;;;;;96.65;10.52;;;;;;;4.12;98.27;103848.81;5056756;28;20530;-67
2022/01/18 04:53:08;;;;;;;190.73;14.70;;;;;;;4.11;98.19;103849.69;5037976;28;20045;-67
2022/01/18 04:55:35;;;;;;;112.97;10.00;;;;;;;4.13;98.61;103842.78;5056015;28;20460;-67
2022/01/18 04:58:00;;;;;;;86.75;8.68;;;;;;;3.90;98.54;103844.63;5055857;28;20025;-67
2022/01/18 05:00:26;;;;;;;90.28;8.93;;;;;;;3.49;99.70;103854.13;5037861;28;20013;-67
2022/01/18 05:02:51;;;;;;;127.93;11.20;;;;;;;3.43;100.00;103851.81;5055625;28;20499;-67
2022/01/18 05:05:24;;;;;;;254.98;15.05;;;;;;;3.24;99.75;103839.78;5055734;28;20021;-67
2022/01/18 05:07:52;;;;;;;191.68;13.27;;;;;;;3.27;100.00;103838.84;5037703;28;20021;-67
2022/01/18 05:10:20;;;;;;;227.75;12.65;;;;;;;3.39;100.00;103839.16;5037605;28;20025;-67
2022/01/18 05:12:48;;;;;;;126.93;10.85;;;;;;;3.56;100.00;103850.38;5037568;28;20028;-66
2022/01/18 05:23:26;;;;;;;171.55;11.02;;;;;;;3.28;99.59;103860.94;5055566;28;20155;-67
2022/01/18 05:25:51;;;;;;;91.00;9.52;;;;;;;3.36;100.00;103846.94;5037248;28;20494;-67
2022/01/18 05:28:16;;;;;;;82.47;8.77;;;;;;;3.47;99.44;103853.34;5037328;28;20424;-66
2022/01/18 05:30:42;;;;;;;62.72;7.95;;;;;;;3.42;99.42;103845.84;5055080;28;20028;-66
2022/01/18 05:33:07;;;;;;;104.10;10.35;;;;;;;3.41;99.39;103848.50;5054980;28;20455;-66
2022/01/18 05:35:34;;;;;;;148.25;11.52;;;;;;;3.31;100.00;103842.91;5055562;28;20037;-67
2022/01/18 05:38:00;;;;;;;129.35;9.65;;;;;;;3.34;99.91;103841.09;5037405;28;20021;-67
2022/01/18 05:40:26;;;;;;;108.28;9.73;;;;;;;3.41;99.82;103840.81;5053650;28;20063;-67
2022/01/18 05:42:52;;;;;;;83.07;10.65;;;;;;;3.42;99.73;103838.19;5036024;28;20025;-67
2022/01/18 05:45:17;;;;;;;83.25;9.15;;;;;;;3.43;99.28;103846.72;5035673;28;20024;-67
2022/01/18 05:47:43;;;;;;;80.70;8.85;;;;;;;3.34;99.09;103838.53;5054251;28;20454;-67
2022/01/18 05:50:10;;;;;;;54.45;7.38;;;;;;;3.35;98.71;103837.63;5035671;28;20021;-67
2022/01/18 05:52:36;;;;;;;51.53;7.22;;;;;;;3.42;98.29;103830.50;5035925;28;20048;-68
2022/01/18 05:55:03;;;;;;;90.40;10.15;;;;;;;3.30;97.67;103844.66;5036400;28;20459;-67
2022/01/18 05:57:28;;;;;;;44.58;6.93;;;;;;;3.15;97.96;103838.44;5036635;28;20032;-69
2022/01/18 06:00:00;;;;;;;50.33;7.68;;;;;;;3.01;98.53;103840.75;5036633;28;20051;-69
2022/01/18 06:02:47;;;;;;;65.75;7.97;;;;;;;3.10;98.19;103842.91;5054265;28;20028;-67
2022/01/18 06:07:58;;;;;;;48.92;7.45;;;;;;;2.98;98.14;103853.63;5054623;28;20056;-68
2022/01/18 06:10:24;;;;;;;66.78;7.50;;;;;;;3.06;98.60;103861.00;5054129;28;20025;-67
2022/01/18 06:12:49;;;;;;;31.13;6.30;;;;;;;2.99;98.51;103862.97;5054065;28;20032;-66
2022/01/18 06:15:14;;;;;;;36.30;6.47;;;;;;;2.95;98.44;103866.53;5054011;28;20035;-67
2022/01/18 06:17:40;;;;;;;30.77;7.15;;;;;;;2.99;98.03;103862.13;5053760;28;20467;-67
2022/01/18 06:20:06;;;;;;;55.47;7.28;;;;;;;2.96;98.36;103860.53;5053773;28;20033;-67
2022/01/18 06:22:32;;;;;;;25.20;7.88;;;;;;;3.04;98.13;103855.13;5036776;28;20029;-67
2022/01/18 06:24:57;;;;;;;48.22;6.82;;;;;;;3.06;98.19;103864.38;5055562;28;20104;-69
2022/01/18 06:27:23;;;;;;;20.77;6.90;;;;;;;2.98;98.77;103858.75;5053583;28;20021;-67
2022/01/18 06:29:48;;;;;;;35.63;6.80;;;;;;;2.79;99.38;103858.66;5053923;28;20024;-66
2022/01/18 06:32:14;;;;;;;39.17;6.65;;;;;;;2.75;99.97;103848.63;5053588;28;20025;-67
2022/01/18 06:34:39;;;;;;;34.28;6.35;;;;;;;2.60;99.99;103857.72;5037570;28;20566;-69
2022/01/18 06:37:04;;;;;;;26.30;6.00;;;;;;;2.68;100.00;103860.81;5053405;28;20027;-67
2022/01/18 06:39:30;;;;;;;37.13;6.63;;;;;;;2.70;100.00;103859.88;5054087;28;20100;-68
2022/01/18 06:41:55;;;;;;;77.15;9.18;;;;;;;2.78;100.00;103854.44;5053785;28;20064;-68
2022/01/18 06:44:22;;;;;;;62.08;6.72;;;;;;;2.99;99.40;103865.50;5035055;28;20025;-67
2022/01/18 06:46:48;;;;;;;43.85;7.85;;;;;;;3.03;99.23;103863.69;5051733;28;20049;-67
2022/01/18 06:49:13;;;;;;;43.97;8.13;;;;;;;2.97;98.93;103864.75;5052183;28;20064;-70
2022/01/18 06:51:38;;;;;;;70.03;8.15;;;;;;;3.14;98.92;103875.13;5052358;28;20056;-67
2022/01/18 06:54:04;;;;;;;67.22;6.95;;;;;;;3.30;99.39;103874.50;5052887;28;20512;-67
2022/01/18 06:56:29;;;;;;;39.08;7.18;;;;;;;3.36;98.71;103861.47;5053860;28;20016;-67
2022/01/18 06:58:55;;;;;;;82.00;8.35;;;;;;;3.43;97.65;103870.56;5054842;28;20054;-69
2022/01/18 07:01:21;;;;;;;89.95;6.65;;;;;;;3.49;97.51;103875.41;5054769;28;20044;-68
2022/01/18 07:03:48;;;;;;;65.28;6.82;;;;;;;3.57;97.68;103875.91;5019045;28;20033;-66
2022/01/18 07:06:14;;;;;;;25.90;5.82;;;;;;;3.71;97.57;103880.44;5053166;28;20135;-67
2022/01/18 07:08:40;;;;;;;51.75;6.93;;;;;;;3.71;97.56;103884.69;5035267;28;20024;-68
2022/01/18 07:11:06;;;;;;;37.13;6.38;;;;;;;3.69;97.27;103891.63;5019575;28;20438;-67
2022/01/18 07:13:31;;;;;;;47.30;5.18;;;;;;;3.56;98.05;103886.19;5053089;28;20400;-66
2022/01/18 07:15:57;;;;;;;78.22;7.38;;;;;;;3.63;98.08;103886.78;5035246;28;20021;-66
2022/01/18 07:18:22;;;;;;;42.55;6.55;;;;;;;3.65;97.50;103887.53;5052432;28;20399;-66
2022/01/18 07:20:48;;;;;;;60.15;8.07;;;;;;;3.41;98.06;103872.31;5052158;28;20028;-69
2022/01/18 07:23:13;;;;;;;57.30;7.72;;;;;;;3.53;97.85;103889.72;5053738;28;20104;-66
2022/01/18 07:25:45;;;;;;;60.55;7.68;;;;;;;3.44;98.98;103886.72;5053407;28;20540;-66
2022/01/18 07:28:11;;;;;;;53.65;6.97;;;;;;;3.37;99.33;103884.41;5035091;28;20021;-66
2022/01/18 07:30:37;;;;;;;33.90;6.13;;;;;;;3.36;99.68;103889.56;5053003;28;20032;-67
2022/01/18 07:33:04;;;;;;;55.55;7.05;;;;;;;3.50;99.90;103874.50;5052587;28;20021;-67
2022/01/18 07:35:31;;;;;;;40.05;7.00;;;;;;;3.56;98.75;103871.69;5033622;28;20116;-67
2022/01/18 07:37:57;;;;;;;70.68;6.40;;;;;;;3.54;98.60;103876.03;5050762;28;20070;-66
2022/01/18 07:40:22;;;;;;;31.13;5.70;;;;;;;3.64;98.91;103873.09;5033563;28;20123;-67
2022/01/18 07:42:47;;;;;;;43.33;5.53;;;;;;;3.52;97.87;103871.88;5051842;28;20188;-67
2022/01/18 07:45:13;;;;;;;30.02;5.00;;;;;;;3.23;99.14;103876.47;5050123;28;20025;-66
2022/01/18 07:47:39;;;;;;;46.25;7.18;;;;;;;3.24;100.00;103888.34;5052644;28;20021;-66
2022/01/18 07:50:05;;;;;;;20.23;4.70;;;;;;;3.07;100.00;103891.59;5034390;28;20082;-66
2022/01/18 07:52:32;;;;;;;40.65;4.90;;;;;;;3.28;100.00;103873.72;5052351;28;20060;-66
2022/01/18 07:54:57;;;;;;;56.15;5.15;;;;;;;3.31;100.00;103883.81;5052969;28;20032;-67
2022/01/18 07:57:23;;;;;;;31.48;4.72;;;;;;;3.49;100.00;103889.91;5052765;28;20493;-66
2022/01/18 07:59:48;;;;;;;56.05;4.70;;;;;;;3.40;99.70;103893.69;5052921;28;20028;-65
2022/01/18 08:02:13;;;;;;;98.20;5.53;;;;;;;3.70;99.13;103891.56;5053001;28;20021;-67
2022/01/18 08:04:38;;;;;;;16.40;3.83;;;;;;;3.83;98.13;103889.31;5052785;28;20025;-66
2022/01/18 08:07:04;;;;;;;52.55;4.43;;;;;;;3.54;96.57;103899.06;5052551;28;20464;-66
2022/01/18 08:09:29;;;;;;;9.30;4.28;;;;;;;3.60;97.30;103897.97;5052505;28;20029;-66
2022/01/18 08:11:55;;;;;;;16.35;3.33;;;;;;;3.63;96.89;103907.25;5052680;28;20013;-66
2022/01/18 08:14:20;;;;;;;13.35;3.50;;;;;;;3.51;96.61;103906.00;5054144;28;20028;-66
2022/01/18 08:17:00;;;;;;;27.38;4.40;;;;;;;3.53;96.62;103907.59;5056981;28;20036;-66
2022/01/18 08:19:26;;;;;;;19.80;4.45;;;;;;;3.52;97.03;103900.00;5038300;28;20025;-65
2022/01/18 08:21:52;;;;;;;15.40;4.50;;;;;;;3.59;96.92;103904.78;5056511;28;20051;-66
2022/01/18 08:24:17;;;;;;;20.13;4.25;;;;;;;3.66;96.46;103897.72;5038507;28;20021;-66
2022/01/18 08:26:42;;;;;;;17.15;3.60;;;;;;;3.64;95.83;103902.03;5055930;28;20121;-63
2022/01/18 08:29:08;;;;;;;16.30;4.35;;;;;;;3.46;97.51;103901.09;5038408;28;20025;-65
2022/01/18 08:31:33;;;;;;;27.00;4.10;;;;;;;3.59;97.13;103899.66;5056113;28;20017;-67
2022/01/18 08:33:59;;;;;;;20.23;4.50;;;;;;;3.67;96.89;103901.91;5056047;28;20079;-68
2022/01/18 08:36:24;;;;;;;34.13;5.68;;;;;;;3.67;96.79;103901.91;5054937;28;20047;-66
2022/01/18 08:38:49;;;;;;;42.72;3.55;;;;;;;3.78;95.37;103893.78;5038807;28;20021;-65
2022/01/18 08:41:15;;;;;;;31.05;4.05;;;;;;;3.64;96.11;103898.66;5037993;28;20017;-66
2022/01/18 08:43:41;;;;;;;49.35;4.38;;;;;;;3.56;96.72;103902.38;5056563;28;20096;-66
2022/01/18 08:46:06;;;;;;;64.75;4.68;;;;;;;3.50;96.52;103900.06;5056593;28;20449;-66
2022/01/18 08:48:32;;;;;;;70.78;4.93;;;;;;;3.45;96.88;103904.53;5056375;28;20032;-66
2022/01/18 08:50:58;;;;;;;65.50;6.28;;;;;;;3.36;97.63;103897.25;5037899;28;20023;-67
2022/01/18 08:53:23;;;;;;;55.58;5.50;;;;;;;3.52;98.21;103911.06;5055106;28;20045;-66
2022/01/18 08:55:48;;;;;;;64.93;7.30;;;;;;;3.50;98.13;103904.34;5056230;28;20032;-66
2022/01/18 08:58:14;;;;;;;70.60;6.57;;;;;;;3.53;98.10;103917.00;5037760;28;20025;-65
2022/01/18 09:00:40;;;;;;;153.45;8.27;;;;;;;3.54;97.98;103906.72;5037475;28;20040;-66
2022/01/18 09:03:06;;;;;;;77.05;6.03;;;;;;;3.56;98.18;103914.31;5055837;28;20013;-65
2022/01/18 09:05:31;;;;;;;76.70;6.68;;;;;;;3.41;98.14;103904.75;5036936;28;20032;-65
2022/01/18 09:08:01;;;;;;;88.18;7.05;;;;;;;3.49;98.39;103912.94;5037035;28;20028;-65
2022/01/18 09:10:26;;;;;;;97.63;8.00;;;;;;;3.50;98.87;103912.03;5036901;28;20048;-65
2022/01/18 09:12:52;;;;;;;115.78;7.63;;;;;;;3.53;98.78;103910.16;5037000;28;20095;-66
2022/01/18 09:15:18;;;;;;;100.50;7.80;;;;;;;3.81;98.71;103920.06;5036424;28;20033;-65
2022/01/18 09:17:43;;;;;;;92.78;7.20;;;;;;;3.50;98.61;103906.91;5054487;28;20052;-66
2022/01/18 09:20:12;;;;;;;95.00;8.88;;;;;;;3.73;98.16;103911.88;5037655;28;20115;-65
2022/01/18 09:22:40;;;;;;;62.08;7.80;;;;;;;3.61;98.57;103912.41;5037268;28;20025;-66
2022/01/18 09:25:10;;;;;;;73.07;8.70;;;;;;;3.70;98.88;103911.19;5055055;28;20025;-66
2022/01/18 09:27:35;;;;;;;108.30;8.63;;;;;;;3.66;98.38;103919.91;5053934;28;20032;-66
2022/01/18 09:30:01;;;;;;;100.00;9.63;;;;;;;3.80;98.71;103908.19;5055845;28;20044;-66
2022/01/18 09:32:26;;;;;;;140.55;10.63;;;;;;;3.73;97.60;103911.06;5055008;28;20063;-66
2022/01/18 09:34:52;;;;;;;77.60;10.00;;;;;;;3.88;98.91;103915.50;5055053;28;20040;-66
2022/01/18 09:37:17;;;;;;;105.07;9.02;;;;;;;3.74;98.38;103918.69;5037044;28;20444;-66
2022/01/18 09:39:42;;;;;;;145.73;10.35;;;;;;;3.82;98.82;103920.88;5054817;28;20079;-66
2022/01/18 09:42:10;;;;;;;107.88;9.77;;;;;;;3.73;98.71;103900.81;5054899;28;20028;-62
2022/01/18 09:44:35;;;;;;;68.30;7.90;;;;;;;3.74;97.94;103915.25;5054729;28;20158;-67
2022/01/18 09:47:02;;;;;;;54.95;7.28;;;;;;;3.76;98.68;103916.88;5052987;28;20024;-67
2022/01/18 09:49:27;;;;;;;76.57;7.30;;;;;;;3.87;98.00;103913.84;5052004;28;20025;-66
2022/01/18 09:51:52;;;;;;;94.22;9.98;;;;;;;3.89;97.70;103919.75;5033837;28;20025;-67
2022/01/18 09:54:18;;;;;;;105.07;8.57;;;;;;;3.70;98.45;103913.75;5054058;28;20021;-67
2022/01/18 09:56:44;;;;;;;132.27;8.85;;;;;;;3.57;98.22;103916.84;5037097;28;20021;-65
2022/01/18 09:59:09;;;;;;;129.38;10.10;;;;;;;3.42;98.51;103922.56;5036274;28;20033;-65
2022/01/18 10:01:36;;;;;;;100.70;9.15;;;;;;;3.43;99.70;103925.97;5053759;28;20029;-66
2022/01/18 10:04:16;;;;;;;97.05;11.73;;;;;;;3.71;99.43;103931.59;5036430;28;20025;-65
2022/01/18 10:06:42;;;;;;;95.90;7.45;;;;;;;3.56;98.53;103932.22;5053242;28;20025;-66
2022/01/18 10:09:15;;;;;;;106.53;7.97;;;;;;;3.66;98.89;103928.41;5054671;28;20074;-66
2022/01/18 10:11:58;;;;;;;;;;;;;;;3.74;99.11;103933.16;5054685;28;20055;-66
2022/01/18 10:14:24;;;;;;;216.43;9.52;;;;;;;3.79;97.75;103931.25;5035915;28;20282;-67
2022/01/18 10:16:49;;;;;;;194.38;9.98;;;;;;;3.59;98.58;103922.69;5036190;28;20021;-67
2022/01/18 10:19:29;;;;;;;161.18;9.63;;;;;;;3.60;98.93;103931.22;5054168;28;20048;-67
2022/01/18 10:22:09;;;;;;;156.02;9.25;;;;;;;3.64;98.82;103937.03;5053674;28;20013;-67
2022/01/18 10:24:36;;;;;;;128.23;8.32;;;;;;;3.69;98.98;103932.56;5054270;28;20478;-66
2022/01/18 10:27:03;;;;;;;102.05;8.63;;;;;;;3.80;99.06;103922.72;5053898;28;20032;-66
2022/01/18 10:29:32;;;;;;;67.15;8.95;;;;;;;4.12;98.93;103923.03;5035968;28;20553;-66
2022/01/18 10:32:08;;;;;;;210.55;11.40;;;;;;;3.92;98.06;103921.34;5053586;28;20055;-61
2022/01/18 10:37:17;;;;;;;52.70;8.13;;;;;;;4.23;97.37;103913.13;5052440;28;20040;-66
2022/01/18 10:39:48;;;;;;;98.18;9.32;;;;;;;4.46;97.44;103914.66;5054341;28;20021;-67
2022/01/18 10:42:36;;;;;;;59.15;8.02;;;;;;;4.41;96.44;103919.19;5035457;28;20116;-66
2022/01/18 10:45:29;;;;;;;277.92;12.50;;;;;;;4.12;96.38;103915.38;5053366;28;20036;-65
2022/01/18 10:47:59;;;;;;;202.73;9.98;;;;;;;3.94;97.16;103910.16;5035701;28;20021;-66
2022/01/18 10:50:29;;;;;;;192.25;9.93;;;;;;;3.79;97.66;103914.19;5053957;28;20456;-65
2022/01/18 10:53:13;;;;;;;219.43;9.68;;;;;;;3.78;99.02;103916.81;5035563;28;20156;-65
2022/01/18 10:55:39;;;;;;;168.93;13.68;;;;;;;3.99;99.00;103910.75;5053643;28;20060;-66
2022/01/18 10:58:11;;;;;;;119.50;10.18;;;;;;;4.23;98.66;103908.88;5053564;28;20060;-67
2022/01/18 11:00:38;;;;;;;78.78;9.05;;;;;;;4.18;98.29;103904.84;5053742;28;20038;-67
2022/01/18 11:03:04;;;;;;;147.75;9.32;;;;;;;4.35;98.72;103907.47;5053418;28;20052;-66
2022/01/18 11:05:32;;;;;;;169.23;11.68;;;;;;;4.28;97.29;103901.78;5051229;28;20029;-67
2022/01/18 11:08:04;;;;;;;183.32;11.13;;;;;;;4.14;98.16;103903.31;5034968;28;20479;-66
2022/01/18 11:10:38;;;;;;;137.05;10.35;;;;;;;4.17;98.88;103911.69;5035728;28;20021;-66
2022/01/18 11:13:10;;;;;;;74.20;12.02;;;;;;;4.62;98.72;103910.50;5052874;28;20039;-66
2022/01/18 11:15:39;;;;;;;133.75;8.50;;;;;;;4.85;96.48;103906.03;5034428;28;20430;-67
2022/01/18 11:18:14;;;;;;;229.40;14.57;;;;;;;4.71;96.67;103909.22;5051929;28;20030;-66
2022/01/18 11:20:44;;;;;;;54.70;7.80;;;;;;;4.92;96.81;103908.25;5034143;28;20110;-65
2022/01/18 11:23:10;;;;;;;108.43;7.93;;;;;;;4.89;95.64;103905.81;5052112;28;20025;-67
2022/01/18 11:25:37;;;;;;;49.03;7.32;;;;;;;5.01;95.62;103914.66;5052034;28;20037;-67
2022/01/18 11:28:05;;;;;;;157.68;11.60;;;;;;;5.03;95.58;103902.56;5052261;28;20040;-66
2022/01/18 11:30:33;;;;;;;84.25;7.72;;;;;;;4.86;96.12;103905.97;5052935;28;20027;-66
2022/01/18 11:33:01;;;;;;;132.68;9.32;;;;;;;4.73;96.86;103899.75;5053378;28;20032;-66
2022/01/18 11:35:46;;;;;;;151.25;9.63;;;;;;;4.82;95.80;103901.06;5035717;28;20086;-66
2022/01/18 11:38:18;;;;;;;63.05;7.63;;;;;;;4.80;96.24;103898.53;5051091;28;20471;-66
2022/01/18 11:40:53;;;;;;;99.20;8.18;;;;;;;4.93;97.38;103903.94;5032070;28;20459;-66
2022/01/18 11:43:42;;;;;;;95.57;9.10;;;;;;;5.09;95.77;103910.00;5033688;28;20179;-66
2022/01/18 11:46:29;;;;;;;88.28;9.57;;;;;;;5.15;95.43;103908.84;5034782;28;20021;-66
2022/01/18 11:49:16;;;;;;;79.50;9.10;;;;;;;5.14;95.77;103900.31;5035620;28;20028;-66
2022/01/18 11:51:48;;;;;;;124.53;8.95;;;;;;;4.86;95.93;103902.56;5039344;28;20045;-65
2022/01/18 11:54:56;;;;;;;77.22;7.68;;;;;;;5.12;97.43;103902.16;5038964;28;20107;-66
2022/01/18 11:57:21;;;;;;;93.93;7.43;;;;;;;5.01;95.94;103904.41;5056742;28;20056;-66
2022/01/18 11:59:47;;;;;;;59.00;7.78;;;;;;;5.10;96.48;103903.97;5056297;28;20534;-66
2022/01/18 12:02:35;;;;;;;91.97;9.10;;;;;;;4.95;96.21;103902.97;5038090;28;20353;-67
2022/01/18 12:05:13;;;;;;;76.75;7.25;;;;;;;5.13;96.50;103891.00;5039266;28;20055;-71
2022/01/18 12:07:42;;;;;;;45.75;7.05;;;;;;;5.28;97.02;103896.28;5040092;28;20033;-66
2022/01/18 12:10:27;;;;;;;83.32;8.15;;;;;;;5.11;96.81;103897.09;5056774;28;20075;-67
2022/01/18 12:12:55;;;;;;;47.35;8.13;;;;;;;5.12;97.45;103906.44;5055983;28;20028;-68
2022/01/18 12:15:23;;;;;;;43.20;7.75;;;;;;;4.99;97.40;103903.63;5057249;28;20520;-67
2022/01/18 12:17:56;;;;;;;30.25;8.23;;;;;;;5.24;98.17;103912.72;5038398;28;20361;-65
2022/01/18 12:20:34;;;;;;;58.75;9.50;;;;;;;5.21;97.81;103903.44;5038382;28;20476;-67
2022/01/18 12:23:06;;;;;;;49.88;8.80;;;;;;;5.25;96.51;103906.69;5056297;28;20111;-66
2022/01/18 12:25:35;;;;;;;59.10;8.98;;;;;;;5.06;97.78;103902.44;5056568;28;20095;-67
2022/01/18 12:36:54;;;;;;;55.92;9.68;;;;;;;5.46;96.94;103879.94;5057053;28;20116;-69
2022/01/18 12:39:19;;;;;;;67.15;11.73;;;;;;;5.35;97.04;103880.50;5056628;28;20107;-66
2022/01/18 12:41:48;;;;;;;40.20;10.27;;;;;;;5.40;97.54;103875.13;5037496;28;20117;-67
2022/01/18 12:44:22;;;;;;;30.95;11.48;;;;;;;5.48;97.77;103867.88;5038762;28;20029;-66
2022/01/18 12:46:59;;;;;;;36.88;11.98;;;;;;;5.45;96.91;103855.22;5055686;28;20029;-66